Worcester, Massachusetts
Current Conditions -  °F | °C
As of 4:54 PM on Sunday 21 Dec 2014 (Local Time) from KORH Reporting Station
Overcast Overcast  
Wind Chill: 23°   Ceiling: 900
Heat Index: 29°   Visibility: 10mi
Dew Point: 27°   Wind: 6mph
Humidity: 92%   Direction: 40°NE
Pressure: 30.27"   Gusts: NA
Location:  42.26°N, 71.8°W
Report Text: KORH 212154Z 04005KT 10SM OVC009 M02/M03 A3027 RMK AO2 SNB02E16 SLP264 P0000 T10171028
Loading
Personal Weather Stations






























Interactive Weather Map New forecast layout! Learn more

10-Day Weather Forecast

Advertisements
Track Severe Weather on mobile